sensor_id;sensor_type;location;lat;lon;timestamp;pressure;altitude;pressure_sealevel;temperature;humidity
76590;BME280;65471;55.908;37.880;2023-08-07T00:02:25;99812.56;;;20.14;88.42
76590;BME280;65471;55.908;37.880;2023-08-07T00:04:53;99805.72;;;20.12;88.68
76590;BME280;65471;55.908;37.880;2023-08-07T00:07:20;99808.47;;;20.12;88.42
76590;BME280;65471;55.908;37.880;2023-08-07T00:09:47;99807.44;;;20.08;88.60
76590;BME280;65471;55.908;37.880;2023-08-07T00:12:14;99804.97;;;20.06;88.55
76590;BME280;65471;55.908;37.880;2023-08-07T00:14:41;99800.91;;;20.04;88.75
76590;BME280;65471;55.908;37.880;2023-08-07T00:17:08;99799.88;;;19.99;88.69
76590;BME280;65471;55.908;37.880;2023-08-07T00:19:35;99800.97;;;19.98;89.00
76590;BME280;65471;55.908;37.880;2023-08-07T00:22:02;99795.78;;;19.97;89.13
76590;BME280;65471;55.908;37.880;2023-08-07T00:24:30;99801.56;;;19.95;89.01
76590;BME280;65471;55.908;37.880;2023-08-07T00:26:57;99799.94;;;19.94;88.99
76590;BME280;65471;55.908;37.880;2023-08-07T00:29:24;99803.78;;;19.93;89.10
76590;BME280;65471;55.908;37.880;2023-08-07T00:31:51;99804.88;;;19.92;89.14
76590;BME280;65471;55.908;37.880;2023-08-07T00:34:18;99806.00;;;19.91;89.08
76590;BME280;65471;55.908;37.880;2023-08-07T00:36:45;99811.78;;;19.90;89.04
76590;BME280;65471;55.908;37.880;2023-08-07T00:39:12;99800.56;;;19.86;89.22
76590;BME280;65471;55.908;37.880;2023-08-07T00:41:39;99807.16;;;19.85;89.06
76590;BME280;65471;55.908;37.880;2023-08-07T00:44:06;99801.16;;;19.83;89.21
76590;BME280;65471;55.908;37.880;2023-08-07T00:46:34;99800.66;;;19.81;89.28
76590;BME280;65471;55.908;37.880;2023-08-07T00:49:02;99795.44;;;19.79;89.46
76590;BME280;65471;55.908;37.880;2023-08-07T00:51:30;99802.31;;;19.77;89.46
76590;BME280;65471;55.908;37.880;2023-08-07T00:53:57;99785.00;;;19.76;89.45
76590;BME280;65471;55.908;37.880;2023-08-07T00:56:25;99806.44;;;19.74;89.31
76590;BME280;65471;55.908;37.880;2023-08-07T00:58:53;99799.91;;;19.70;89.52
76590;BME280;65471;55.908;37.880;2023-08-07T01:01:20;99790.88;;;19.70;89.54
76590;BME280;65471;55.908;37.880;2023-08-07T01:03:47;99785.38;;;19.70;89.79
76590;BME280;65471;55.908;37.880;2023-08-07T01:06:14;99800.19;;;19.69;89.63
76590;BME280;65471;55.908;37.880;2023-08-07T01:08:41;99788.19;;;19.64;89.75
76590;BME280;65471;55.908;37.880;2023-08-07T01:11:45;99792.03;;;19.63;89.45
76590;BME280;65471;55.908;37.880;2023-08-07T01:14:27;99789.88;;;19.60;89.75
76590;BME280;65471;55.908;37.880;2023-08-07T01:17:05;99781.63;;;19.60;89.61
76590;BME280;65471;55.908;37.880;2023-08-07T01:19:34;99780.59;;;19.56;89.83
76590;BME280;65471;55.908;37.880;2023-08-07T01:22:12;99788.00;;;19.56;89.82
76590;BME280;65471;55.908;37.880;2023-08-07T01:24:43;99778.44;;;19.53;89.96
76590;BME280;65471;55.908;37.880;2023-08-07T01:28:12;99784.44;;;19.55;89.85
76590;BME280;65471;55.908;37.880;2023-08-07T01:33:32;99778.78;;;19.46;89.95
76590;BME280;65471;55.908;37.880;2023-08-07T01:36:05;99781.81;;;19.45;90.00
76590;BME280;65471;55.908;37.880;2023-08-07T01:38:34;99780.19;;;19.44;90.09
76590;BME280;65471;55.908;37.880;2023-08-07T01:41:02;99768.69;;;19.42;90.04
76590;BME280;65471;55.908;37.880;2023-08-07T01:43:30;99778.00;;;19.41;90.11
76590;BME280;65471;55.908;37.880;2023-08-07T01:45:58;99764.59;;;19.39;90.18
76590;BME280;65471;55.908;37.880;2023-08-07T01:48:26;99769.56;;;19.37;90.33
76590;BME280;65471;55.908;37.880;2023-08-07T01:50:53;99766.81;;;19.37;90.24
76590;BME280;65471;55.908;37.880;2023-08-07T01:53:21;99781.63;;;19.36;90.09
76590;BME280;65471;55.908;37.880;2023-08-07T01:55:48;99774.22;;;19.37;89.88
76590;BME280;65471;55.908;37.880;2023-08-07T01:58:15;99771.47;;;19.37;90.08
76590;BME280;65471;55.908;37.880;2023-08-07T02:00:42;99770.66;;;19.36;90.06
76590;BME280;65471;55.908;37.880;2023-08-07T02:03:09;99769.84;;;19.36;90.12
76590;BME280;65471;55.908;37.880;2023-08-07T02:05:36;99773.69;;;19.35;90.09
76590;BME280;65471;55.908;37.880;2023-08-07T02:08:03;99770.44;;;19.33;90.21
76590;BME280;65471;55.908;37.880;2023-08-07T02:10:30;99769.91;;;19.30;90.26
76590;BME280;65471;55.908;37.880;2023-08-07T02:12:57;99763.06;;;19.28;90.27
76590;BME280;65471;55.908;37.880;2023-08-07T02:15:25;99757.97;;;19.16;90.42
76590;BME280;65471;55.908;37.880;2023-08-07T02:17:52;99764.81;;;19.19;90.61
76590;BME280;65471;55.908;37.880;2023-08-07T02:20:19;99767.25;;;19.20;90.54
76590;BME280;65471;55.908;37.880;2023-08-07T02:22:46;99762.28;;;19.22;90.39
76590;BME280;65471;55.908;37.880;2023-08-07T02:25:13;99773.81;;;19.24;90.37
76590;BME280;65471;55.908;37.880;2023-08-07T02:27:40;99765.59;;;19.24;90.37
76590;BME280;65471;55.908;37.880;2023-08-07T02:30:07;99772.16;;;19.23;90.29
76590;BME280;65471;55.908;37.880;2023-08-07T02:32:34;99761.19;;;19.23;90.38
76590;BME280;65471;55.908;37.880;2023-08-07T02:35:01;99771.06;;;19.24;90.42
76590;BME280;65471;55.908;37.880;2023-08-07T02:37:29;99771.88;;;19.25;90.37
76590;BME280;65471;55.908;37.880;2023-08-07T02:39:55;99767.22;;;19.25;90.34
76590;BME280;65471;55.908;37.880;2023-08-07T02:42:22;99772.13;;;19.28;90.42
76590;BME280;65471;55.908;37.880;2023-08-07T02:44:49;99764.72;;;19.29;90.44
76590;BME280;65471;55.908;37.880;2023-08-07T02:47:16;99766.06;;;19.31;90.45
76590;BME280;65471;55.908;37.880;2023-08-07T02:49:43;99769.59;;;19.32;90.26
76590;BME280;65471;55.908;37.880;2023-08-07T02:52:10;99768.78;;;19.31;90.37
76590;BME280;65471;55.908;37.880;2023-08-07T02:54:37;99764.97;;;19.33;90.40
76590;BME280;65471;55.908;37.880;2023-08-07T02:57:04;99768.22;;;19.35;90.42
76590;BME280;65471;55.908;37.880;2023-08-07T02:59:31;99763.53;;;19.35;90.48
76590;BME280;65471;55.908;37.880;2023-08-07T03:01:58;99764.38;;;19.36;90.52
76590;BME280;65471;55.908;37.880;2023-08-07T03:04:25;99772.81;;;19.39;90.38
76590;BME280;65471;55.908;37.880;2023-08-07T03:06:51;99773.34;;;19.41;90.37
76590;BME280;65471;55.908;37.880;2023-08-07T03:09:19;99773.06;;;19.43;90.24
76590;BME280;65471;55.908;37.880;2023-08-07T03:11:46;99769.22;;;19.44;90.23
76590;BME280;65471;55.908;37.880;2023-08-07T03:14:13;99776.31;;;19.45;90.42
76590;BME280;65471;55.908;37.880;2023-08-07T03:16:40;99770.53;;;19.46;90.25
76590;BME280;65471;55.908;37.880;2023-08-07T03:19:07;99760.91;;;19.49;90.10
76590;BME280;65471;55.908;37.880;2023-08-07T03:21:33;99760.63;;;19.51;89.90
76590;BME280;65471;55.908;37.880;2023-08-07T03:24:00;99755.16;;;19.51;90.20
76590;BME280;65471;55.908;37.880;2023-08-07T03:26:27;99757.28;;;19.54;90.25
76590;BME280;65471;55.908;37.880;2023-08-07T03:28:54;99754.00;;;19.57;90.04
76590;BME280;65471;55.908;37.880;2023-08-07T03:31:21;99755.03;;;19.61;90.04
76590;BME280;65471;55.908;37.880;2023-08-07T03:33:48;99756.38;;;19.63;90.17
76590;BME280;65471;55.908;37.880;2023-08-07T03:36:15;99755.25;;;19.64;89.81
76590;BME280;65471;55.908;37.880;2023-08-07T03:38:42;99752.47;;;19.70;90.13
76590;BME280;65471;55.908;37.880;2023-08-07T03:41:09;99757.38;;;19.73;90.02
76590;BME280;65471;55.908;37.880;2023-08-07T03:43:36;99753.47;;;19.79;89.79
76590;BME280;65471;55.908;37.880;2023-08-07T03:46:03;99754.53;;;19.83;89.78
76590;BME280;65471;55.908;37.880;2023-08-07T03:48:30;99758.81;;;19.89;89.52
76590;BME280;65471;55.908;37.880;2023-08-07T03:51:05;99746.38;;;19.97;89.25
76590;BME280;65471;55.908;37.880;2023-08-07T03:53:34;99744.38;;;20.03;89.45
76590;BME280;65471;55.908;37.880;2023-08-07T03:56:01;99745.13;;;20.08;88.93
76590;BME280;65471;55.908;37.880;2023-08-07T03:58:29;99742.28;;;20.13;88.58
76590;BME280;65471;55.908;37.880;2023-08-07T04:00:56;99741.44;;;20.18;88.58
76590;BME280;65471;55.908;37.880;2023-08-07T04:03:23;99746.75;;;20.28;88.36
76590;BME280;65471;55.908;37.880;2023-08-07T04:05:54;99749.94;;;20.35;88.36
76590;BME280;65471;55.908;37.880;2023-08-07T04:08:21;99742.75;;;20.40;88.33
76590;BME280;65471;55.908;37.880;2023-08-07T04:11:02;99752.53;;;20.46;87.89
76590;BME280;65471;55.908;37.880;2023-08-07T04:13:30;99756.53;;;20.53;88.02
76590;BME280;65471;55.908;37.880;2023-08-07T04:15:58;99736.41;;;20.58;87.53
76590;BME280;65471;55.908;37.880;2023-08-07T04:18:25;99738.22;;;20.68;87.41
76590;BME280;65471;55.908;37.880;2023-08-07T04:20:56;99728.97;;;20.78;87.06
76590;BME280;65471;55.908;37.880;2023-08-07T04:23:23;99739.28;;;20.86;86.72
76590;BME280;65471;55.908;37.880;2023-08-07T04:25:52;99739.38;;;20.95;86.27
76590;BME280;65471;55.908;37.880;2023-08-07T04:28:20;99741.97;;;21.05;86.05
76590;BME280;65471;55.908;37.880;2023-08-07T04:30:51;99742.91;;;21.14;85.52
76590;BME280;65471;55.908;37.880;2023-08-07T04:33:20;99741.59;;;21.26;84.60
76590;BME280;65471;55.908;37.880;2023-08-07T04:35:47;99739.47;;;21.36;84.08
76590;BME280;65471;55.908;37.880;2023-08-07T04:38:15;99746.91;;;21.50;83.19
76590;BME280;65471;55.908;37.880;2023-08-07T04:40:49;99746.22;;;21.58;82.72
76590;BME280;65471;55.908;37.880;2023-08-07T04:43:18;99751.59;;;21.63;82.49
76590;BME280;65471;55.908;37.880;2023-08-07T04:45:48;99750.59;;;21.73;81.98
76590;BME280;65471;55.908;37.880;2023-08-07T04:48:15;99747.44;;;21.80;81.23
76590;BME280;65471;55.908;37.880;2023-08-07T04:50:44;99753.94;;;21.84;81.74
76590;BME280;65471;55.908;37.880;2023-08-07T04:53:11;99753.31;;;21.87;81.58
76590;BME280;65471;55.908;37.880;2023-08-07T04:55:38;99746.09;;;21.91;81.70
76590;BME280;65471;55.908;37.880;2023-08-07T04:58:05;99748.13;;;21.99;80.82
76590;BME280;65471;55.908;37.880;2023-08-07T05:00:33;99738.50;;;22.11;80.34
76590;BME280;65471;55.908;37.880;2023-08-07T05:03:00;99740.81;;;22.17;80.19
76590;BME280;65471;55.908;37.880;2023-08-07T05:05:28;99740.50;;;22.33;78.81
76590;BME280;65471;55.908;37.880;2023-08-07T05:07:57;99736.19;;;22.40;78.50
76590;BME280;65471;55.908;37.880;2023-08-07T05:10:24;99734.94;;;22.47;78.05
76590;BME280;65471;55.908;37.880;2023-08-07T05:12:51;99734.00;;;22.51;78.14
76590;BME280;65471;55.908;37.880;2023-08-07T05:15:25;99735.53;;;22.57;77.53
76590;BME280;65471;55.908;37.880;2023-08-07T05:17:52;99736.25;;;22.72;76.41
76590;BME280;65471;55.908;37.880;2023-08-07T05:20:20;99724.78;;;22.79;76.39
76590;BME280;65471;55.908;37.880;2023-08-07T05:22:46;99722.25;;;22.91;76.19
76590;BME280;65471;55.908;37.880;2023-08-07T05:25:15;99723.13;;;23.00;75.31
76590;BME280;65471;55.908;37.880;2023-08-07T05:27:43;99724.78;;;23.10;74.73
76590;BME280;65471;55.908;37.880;2023-08-07T05:30:10;99716.28;;;23.20;73.69
76590;BME280;65471;55.908;37.880;2023-08-07T05:32:37;99710.16;;;23.32;72.32
76590;BME280;65471;55.908;37.880;2023-08-07T05:35:05;99723.19;;;23.49;71.60
76590;BME280;65471;55.908;37.880;2023-08-07T05:37:34;99721.59;;;23.57;71.67
76590;BME280;65471;55.908;37.880;2023-08-07T05:40:01;99723.69;;;23.51;72.12
76590;BME280;65471;55.908;37.880;2023-08-07T05:42:29;99723.41;;;23.61;71.54
76590;BME280;65471;55.908;37.880;2023-08-07T05:44:56;99714.50;;;23.73;70.93
76590;BME280;65471;55.908;37.880;2023-08-07T05:47:23;99711.44;;;23.84;70.44
76590;BME280;65471;55.908;37.880;2023-08-07T05:49:50;99714.06;;;23.89;70.62
76590;BME280;65471;55.908;37.880;2023-08-07T05:52:17;99715.88;;;23.93;70.72
76590;BME280;65471;55.908;37.880;2023-08-07T05:54:45;99702.53;;;23.95;70.86
76590;BME280;65471;55.908;37.880;2023-08-07T05:57:12;99709.53;;;24.02;70.53
76590;BME280;65471;55.908;37.880;2023-08-07T05:59:38;99701.25;;;24.10;69.14
76590;BME280;65471;55.908;37.880;2023-08-07T06:02:06;99700.78;;;24.17;68.76
76590;BME280;65471;55.908;37.880;2023-08-07T06:04:34;99704.19;;;24.23;68.50
76590;BME280;65471;55.908;37.880;2023-08-07T06:07:01;99691.50;;;24.30;68.60
76590;BME280;65471;55.908;37.880;2023-08-07T06:09:28;99703.84;;;24.33;69.04
76590;BME280;65471;55.908;37.880;2023-08-07T06:11:55;99701.41;;;24.40;68.48
76590;BME280;65471;55.908;37.880;2023-08-07T06:14:22;99698.97;;;24.47;67.75
76590;BME280;65471;55.908;37.880;2023-08-07T06:16:52;99695.38;;;24.56;66.85
76590;BME280;65471;55.908;37.880;2023-08-07T06:19:19;99692.97;;;24.63;66.42
76590;BME280;65471;55.908;37.880;2023-08-07T06:21:58;99694.41;;;24.69;66.11
76590;BME280;65471;55.908;37.880;2023-08-07T06:24:26;99695.84;;;24.75;65.87
76590;BME280;65471;55.908;37.880;2023-08-07T06:26:53;99696.00;;;24.79;65.64
76590;BME280;65471;55.908;37.880;2023-08-07T06:29:20;99698.28;;;24.86;65.30
76590;BME280;65471;55.908;37.880;2023-08-07T06:31:47;99689.78;;;24.91;64.92
76590;BME280;65471;55.908;37.880;2023-08-07T06:34:14;99686.84;;;24.96;64.43
76590;BME280;65471;55.908;37.880;2023-08-07T06:36:41;99689.41;;;25.01;64.27
76590;BME280;65471;55.908;37.880;2023-08-07T06:39:08;99695.28;;;25.08;64.16
76590;BME280;65471;55.908;37.880;2023-08-07T06:41:35;99691.63;;;25.16;64.30
76590;BME280;65471;55.908;37.880;2023-08-07T06:44:02;99699.75;;;25.22;63.79
76590;BME280;65471;55.908;37.880;2023-08-07T06:46:29;99692.75;;;25.33;62.88
76590;BME280;65471;55.908;37.880;2023-08-07T06:48:56;99690.41;;;25.44;62.67
76590;BME280;65471;55.908;37.880;2023-08-07T06:51:23;99687.44;;;25.49;62.91
76590;BME280;65471;55.908;37.880;2023-08-07T06:53:50;99688.88;;;25.55;62.17
76590;BME280;65471;55.908;37.880;2023-08-07T06:56:17;99684.44;;;25.63;61.25
76590;BME280;65471;55.908;37.880;2023-08-07T06:58:44;99679.53;;;25.69;60.52
76590;BME280;65471;55.908;37.880;2023-08-07T07:01:11;99683.03;;;25.78;59.76
76590;BME280;65471;55.908;37.880;2023-08-07T07:03:38;99682.50;;;25.84;59.21
76590;BME280;65471;55.908;37.880;2023-08-07T07:06:05;99677.72;;;25.94;59.10
76590;BME280;65471;55.908;37.880;2023-08-07T07:08:32;99668.06;;;26.00;57.98
76590;BME280;65471;55.908;37.880;2023-08-07T07:10:59;99682.19;;;26.07;57.73
76590;BME280;65471;55.908;37.880;2023-08-07T07:13:26;99677.72;;;26.15;57.09
76590;BME280;65471;55.908;37.880;2023-08-07T07:15:54;99664.00;;;26.18;57.29
76590;BME280;65471;55.908;37.880;2023-08-07T07:18:21;99673.72;;;26.25;57.23
76590;BME280;65471;55.908;37.880;2023-08-07T07:20:56;99659.66;;;26.30;56.99
76590;BME280;65471;55.908;37.880;2023-08-07T07:23:24;99666.16;;;26.34;56.92
76590;BME280;65471;55.908;37.880;2023-08-07T07:25:51;99651.25;;;26.39;56.48
76590;BME280;65471;55.908;37.880;2023-08-07T07:28:18;99661.31;;;26.43;56.03
76590;BME280;65471;55.908;37.880;2023-08-07T07:30:45;99653.50;;;26.45;55.71
76590;BME280;65471;55.908;37.880;2023-08-07T07:33:12;99646.78;;;26.46;55.03
76590;BME280;65471;55.908;37.880;2023-08-07T07:35:40;99651.31;;;26.51;55.37
76590;BME280;65471;55.908;37.880;2023-08-07T07:38:07;99644.72;;;26.56;54.83
76590;BME280;65471;55.908;37.880;2023-08-07T07:40:34;99642.56;;;26.61;55.73
76590;BME280;65471;55.908;37.880;2023-08-07T07:43:02;99643.94;;;26.67;54.76
76590;BME280;65471;55.908;37.880;2023-08-07T07:45:29;99650.94;;;26.74;54.33
76590;BME280;65471;55.908;37.880;2023-08-07T07:47:56;99645.16;;;26.79;54.67
76590;BME280;65471;55.908;37.880;2023-08-07T07:50:23;99638.56;;;26.83;53.86
76590;BME280;65471;55.908;37.880;2023-08-07T07:52:50;99640.78;;;26.90;53.71
76590;BME280;65471;55.908;37.880;2023-08-07T07:55:17;99640.78;;;26.90;54.26
76590;BME280;65471;55.908;37.880;2023-08-07T07:57:45;99640.06;;;26.93;54.18
76590;BME280;65471;55.908;37.880;2023-08-07T08:00:12;99643.69;;;26.94;54.39
76590;BME280;65471;55.908;37.880;2023-08-07T08:02:40;99647.25;;;26.94;53.65
76590;BME280;65471;55.908;37.880;2023-08-07T08:05:10;99636.03;;;26.91;52.56
76590;BME280;65471;55.908;37.880;2023-08-07T08:07:38;99636.72;;;26.75;53.06
76590;BME280;65471;55.908;37.880;2023-08-07T08:10:09;99635.34;;;26.81;52.71
76590;BME280;65471;55.908;37.880;2023-08-07T08:12:36;99639.16;;;26.89;53.72
76590;BME280;65471;55.908;37.880;2023-08-07T08:15:04;99636.97;;;26.95;53.58
76590;BME280;65471;55.908;37.880;2023-08-07T08:17:32;99637.31;;;27.06;53.54
76590;BME280;65471;55.908;37.880;2023-08-07T08:19:59;99627.16;;;27.10;53.57
76590;BME280;65471;55.908;37.880;2023-08-07T08:22:26;99628.44;;;27.12;53.40
76590;BME280;65471;55.908;37.880;2023-08-07T08:24:53;99631.78;;;27.18;53.64
76590;BME280;65471;55.908;37.880;2023-08-07T08:27:20;99630.25;;;27.20;53.50
76590;BME280;65471;55.908;37.880;2023-08-07T08:29:48;99627.59;;;27.24;52.98
76590;BME280;65471;55.908;37.880;2023-08-07T08:32:15;99617.06;;;27.30;52.73
76590;BME280;65471;55.908;37.880;2023-08-07T08:34:42;99627.84;;;27.31;53.43
76590;BME280;65471;55.908;37.880;2023-08-07T08:37:09;99625.22;;;27.35;53.23
76590;BME280;65471;55.908;37.880;2023-08-07T08:39:37;99624.50;;;27.38;52.89
76590;BME280;65471;55.908;37.880;2023-08-07T08:42:04;99624.59;;;27.42;52.83
76590;BME280;65471;55.908;37.880;2023-08-07T08:44:34;99612.00;;;27.44;52.32
76590;BME280;65471;55.908;37.880;2023-08-07T08:47:04;99611.28;;;27.47;52.42
76590;BME280;65471;55.908;37.880;2023-08-07T08:49:33;99613.63;;;27.45;52.37
76590;BME280;65471;55.908;37.880;2023-08-07T08:52:00;99608.38;;;27.56;52.22
76590;BME280;65471;55.908;37.880;2023-08-07T08:54:28;99601.44;;;27.62;52.50
76590;BME280;65471;55.908;37.880;2023-08-07T08:56:56;99589.97;;;27.64;52.76
76590;BME280;65471;55.908;37.880;2023-08-07T08:59:24;99593.31;;;27.69;52.30
76590;BME280;65471;55.908;37.880;2023-08-07T09:01:51;99594.78;;;27.79;52.09
76590;BME280;65471;55.908;37.880;2023-08-07T09:04:19;99597.41;;;27.88;51.97
76590;BME280;65471;55.908;37.880;2023-08-07T09:06:46;99589.53;;;27.90;52.31
76590;BME280;65471;55.908;37.880;2023-08-07T09:09:14;99588.00;;;27.93;52.12
76590;BME280;65471;55.908;37.880;2023-08-07T09:11:44;99598.88;;;27.98;51.46
76590;BME280;65471;55.908;37.880;2023-08-07T09:14:16;99576.34;;;27.99;50.91
76590;BME280;65471;55.908;37.880;2023-08-07T09:16:47;99574.47;;;28.03;51.28
76590;BME280;65471;55.908;37.880;2023-08-07T09:19:15;99570.63;;;28.08;51.15
76590;BME280;65471;55.908;37.880;2023-08-07T09:21:42;99581.44;;;28.13;50.72
76590;BME280;65471;55.908;37.880;2023-08-07T09:24:09;99570.53;;;28.20;50.52
76590;BME280;65471;55.908;37.880;2023-08-07T09:26:38;99569.38;;;28.21;50.23
76590;BME280;65471;55.908;37.880;2023-08-07T09:29:09;99571.34;;;28.21;49.39
76590;BME280;65471;55.908;37.880;2023-08-07T09:31:37;99572.63;;;28.23;49.66
76590;BME280;65471;55.908;37.880;2023-08-07T09:34:04;99567.06;;;28.23;49.53
76590;BME280;65471;55.908;37.880;2023-08-07T09:36:34;99562.28;;;28.24;49.80
76590;BME280;65471;55.908;37.880;2023-08-07T09:39:02;99550.38;;;28.23;49.47
76590;BME280;65471;55.908;37.880;2023-08-07T09:41:30;99563.91;;;28.25;50.01
76590;BME280;65471;55.908;37.880;2023-08-07T09:43:57;99567.59;;;28.29;48.65
76590;BME280;65471;55.908;37.880;2023-08-07T09:46:28;99570.03;;;28.31;48.66
76590;BME280;65471;55.908;37.880;2023-08-07T09:48:57;99558.44;;;28.29;48.67
76590;BME280;65471;55.908;37.880;2023-08-07T09:51:25;99554.06;;;28.28;48.78
76590;BME280;65471;55.908;37.880;2023-08-07T09:53:52;99550.03;;;28.25;48.42
76590;BME280;65471;55.908;37.880;2023-08-07T09:56:19;99553.97;;;28.24;48.08
76590;BME280;65471;55.908;37.880;2023-08-07T09:58:47;99553.59;;;28.26;47.78
76590;BME280;65471;55.908;37.880;2023-08-07T10:01:15;99538.19;;;28.28;47.90
76590;BME280;65471;55.908;37.880;2023-08-07T10:03:43;99545.38;;;28.29;48.36
76590;BME280;65471;55.908;37.880;2023-08-07T10:06:11;99545.44;;;28.33;48.83
76590;BME280;65471;55.908;37.880;2023-08-07T10:08:39;99547.88;;;28.34;49.34
76590;BME280;65471;55.908;37.880;2023-08-07T10:11:08;99544.34;;;28.37;49.39
76590;BME280;65471;55.908;37.880;2023-08-07T10:13:37;99546.53;;;28.44;48.43
76590;BME280;65471;55.908;37.880;2023-08-07T10:16:07;99544.66;;;28.48;48.29
76590;BME280;65471;55.908;37.880;2023-08-07T10:18:35;99534.41;;;28.52;47.92
76590;BME280;65471;55.908;37.880;2023-08-07T10:21:05;99518.84;;;28.64;48.03
76590;BME280;65471;55.908;37.880;2023-08-07T10:23:35;99534.19;;;28.73;47.89
76590;BME280;65471;55.908;37.880;2023-08-07T10:26:08;99535.31;;;28.88;47.28
76590;BME280;65471;55.908;37.880;2023-08-07T10:28:39;99524.75;;;29.30;47.09
76590;BME280;65471;55.908;37.880;2023-08-07T10:31:07;99529.09;;;29.66;46.44
76590;BME280;65471;55.908;37.880;2023-08-07T10:33:36;99519.91;;;30.05;45.32
76590;BME280;65471;55.908;37.880;2023-08-07T10:36:08;99526.06;;;30.37;44.50
76590;BME280;65471;55.908;37.880;2023-08-07T10:38:36;99525.19;;;30.33;45.29
76590;BME280;65471;55.908;37.880;2023-08-07T10:41:09;99527.34;;;30.20;44.59
76590;BME280;65471;55.908;37.880;2023-08-07T10:43:38;99522.97;;;30.00;44.24
76590;BME280;65471;55.908;37.880;2023-08-07T10:46:08;99523.09;;;29.84;44.65
76590;BME280;65471;55.908;37.880;2023-08-07T10:48:40;99511.91;;;29.64;44.29
76590;BME280;65471;55.908;37.880;2023-08-07T10:51:07;99515.06;;;29.43;45.38
76590;BME280;65471;55.908;37.880;2023-08-07T10:53:40;99508.31;;;29.24;46.16
76590;BME280;65471;55.908;37.880;2023-08-07T10:56:17;99499.97;;;29.08;46.62
76590;BME280;65471;55.908;37.880;2023-08-07T10:58:50;99496.78;;;29.06;46.25
76590;BME280;65471;55.908;37.880;2023-08-07T11:04:00;99477.91;;;29.00;46.45
76590;BME280;65471;55.908;37.880;2023-08-07T11:06:33;99485.50;;;29.19;45.77
76590;BME280;65471;55.908;37.880;2023-08-07T11:09:01;99478.19;;;29.30;46.44
76590;BME280;65471;55.908;37.880;2023-08-07T11:11:37;99469.59;;;29.19;46.63
76590;BME280;65471;55.908;37.880;2023-08-07T11:14:09;99477.34;;;29.10;45.90
76590;BME280;65471;55.908;37.880;2023-08-07T11:16:36;99473.75;;;29.09;47.02
76590;BME280;65471;55.908;37.880;2023-08-07T11:19:04;99475.53;;;29.18;46.81
76590;BME280;65471;55.908;37.880;2023-08-07T11:21:32;99475.59;;;29.37;46.63
76590;BME280;65471;55.908;37.880;2023-08-07T11:24:01;99463.34;;;29.42;46.05
76590;BME280;65471;55.908;37.880;2023-08-07T11:26:28;99476.44;;;29.41;46.98
76590;BME280;65471;55.908;37.880;2023-08-07T11:28:56;99466.78;;;29.35;46.69
76590;BME280;65471;55.908;37.880;2023-08-07T11:31:24;99462.00;;;29.36;46.92
76590;BME280;65471;55.908;37.880;2023-08-07T11:33:52;99468.16;;;29.45;46.68
76590;BME280;65471;55.908;37.880;2023-08-07T11:36:20;99469.28;;;30.49;45.12
76590;BME280;65471;55.908;37.880;2023-08-07T11:38:47;99468.25;;;31.79;42.60
76590;BME280;65471;55.908;37.880;2023-08-07T11:41:16;99449.91;;;32.75;41.23
76590;BME280;65471;55.908;37.880;2023-08-07T11:43:44;99446.13;;;33.15;40.63
76590;BME280;65471;55.908;37.880;2023-08-07T11:46:13;99446.91;;;33.09;39.24
76590;BME280;65471;55.908;37.880;2023-08-07T11:48:42;99455.09;;;32.73;39.91
76590;BME280;65471;55.908;37.880;2023-08-07T11:51:09;99446.97;;;32.08;40.96
76590;BME280;65471;55.908;37.880;2023-08-07T11:53:37;99447.50;;;31.46;41.91
76590;BME280;65471;55.908;37.880;2023-08-07T11:56:08;99448.44;;;30.96;42.89
76590;BME280;65471;55.908;37.880;2023-08-07T11:58:43;99437.84;;;30.52;42.90
76590;BME280;65471;55.908;37.880;2023-08-07T12:01:18;99437.84;;;30.29;44.00
76590;BME280;65471;55.908;37.880;2023-08-07T12:06:36;99434.47;;;30.16;44.63
76590;BME280;65471;55.908;37.880;2023-08-07T12:09:03;99433.59;;;29.89;45.34
76590;BME280;65471;55.908;37.880;2023-08-07T12:11:30;99422.25;;;29.58;45.37
76590;BME280;65471;55.908;37.880;2023-08-07T12:14:00;99422.72;;;29.41;45.81
76590;BME280;65471;55.908;37.880;2023-08-07T12:16:32;99416.88;;;29.26;46.30
76590;BME280;65471;55.908;37.880;2023-08-07T12:18:59;99405.09;;;29.17;45.98
76590;BME280;65471;55.908;37.880;2023-08-07T12:21:27;99404.97;;;29.10;46.23
76590;BME280;65471;55.908;37.880;2023-08-07T12:23:54;99418.31;;;29.01;46.71
76590;BME280;65471;55.908;37.880;2023-08-07T12:26:22;99411.13;;;29.00;47.01
76590;BME280;65471;55.908;37.880;2023-08-07T12:28:48;99405.72;;;29.46;46.46
76590;BME280;65471;55.908;37.880;2023-08-07T12:31:17;99407.44;;;29.54;46.21
76590;BME280;65471;55.908;37.880;2023-08-07T12:33:44;99402.66;;;29.32;46.31
76590;BME280;65471;55.908;37.880;2023-08-07T12:36:11;99396.59;;;29.10;47.22
76590;BME280;65471;55.908;37.880;2023-08-07T12:38:43;99401.16;;;28.99;47.49
76590;BME280;65471;55.908;37.880;2023-08-07T12:41:10;99392.59;;;28.88;48.15
76590;BME280;65471;55.908;37.880;2023-08-07T12:43:40;99387.25;;;28.79;47.42
76590;BME280;65471;55.908;37.880;2023-08-07T12:46:07;99382.75;;;28.74;47.75
76590;BME280;65471;55.908;37.880;2023-08-07T12:48:37;99389.72;;;28.65;48.69
76590;BME280;65471;55.908;37.880;2023-08-07T12:51:04;99381.50;;;28.56;48.37
76590;BME280;65471;55.908;37.880;2023-08-07T12:53:30;99386.13;;;28.48;48.31
76590;BME280;65471;55.908;37.880;2023-08-07T12:55:58;99367.28;;;28.41;49.06
76590;BME280;65471;55.908;37.880;2023-08-07T12:58:25;99375.56;;;28.38;48.64
76590;BME280;65471;55.908;37.880;2023-08-07T13:00:54;99361.94;;;28.33;48.48
76590;BME280;65471;55.908;37.880;2023-08-07T13:03:21;99372.63;;;28.31;49.38
76590;BME280;65471;55.908;37.880;2023-08-07T13:05:48;99363.38;;;28.27;49.53